Terminal Aerodrome Forecast
Issued by NWS Central Illinois

Home | Current Version | Previous Version | Text Only | Print | Product List | Glossary On
Versions: 1 2 3 4 5 6 7 8 9 10 11 12 13 14 15
000
FTUS43 KILX 222300 RRA
TAFPIA
TAF
KPIA 222346Z 2300/2324 22008KT P6SM VCTS SCT060CB BKN250
     FM230600 33006KT 5SM BR SCT025
     FM231200 03012KT P6SM SCT060 BKN250=

USA.gov is the U.S. government's official web portal to all federal, state and local government web resources and services.